Flight Track Log - Related Links

Times and Time Zones

All times are in EST time to prevent confusion due to time zone crossing. See the OPT332 flight status page for this flight to view local times or setup timezone preferences in your user account.

Time Position Orientation Groundspeed Altitude Reporting Facility
EST Latitude Longitude Course Direction KTS MPH feet Rate Location/Type
Tue 02:24:29 PM 38.6500 -121.4000 180° South 157 181 1,500  Level Northern Cal TRACON
Tue 02:25:29 PM 38.6000 -121.4000 180° South 213 245 2,600 1,765 Climbing Northern Cal TRACON
Tue 02:26:11 PM 38.5844 -121.3597 116° Southeast 213 245 4,500 2,971 Climbing Oakland Center
Tue 02:27:12 PM 38.5842 -121.2778 90° East 227 261 7,700 3,415 Climbing Oakland Center
Tue 02:28:14 PM 38.5847 -121.1853 90° East 256 295 11,500 3,581 Climbing Oakland Center
Tue 02:29:16 PM 38.5858 -121.0661 89° East 274 315 15,100 2,354 Climbing Oakland Center
Tue 02:34:49 PM 38.5882 -120.4077 89° East 389 448 27,000 1,948 Climbing FlightAware ADS-B
Tue 02:35:41 PM 38.5884 -120.2821 90° East 421 484 27,600 844 Climbing FlightAware ADS-B
Tue 02:36:57 PM 38.5880 -120.0854 90° East 446 513 28,800 771 Climbing FlightAware ADS-B
Tue 02:37:30 PM 38.5878 -120.0006 90° East 462 532 29,000 152 Climbing FlightAware ADS-B
Tue 02:38:16 PM 38.5873 -119.8707 90° East 471 542 29,000  Level FlightAware ADS-B
Tue 02:39:09 PM 38.5865 -119.7236 90° East 474 545 29,000  Level FlightAware ADS-B
Tue 02:39:42 PM 38.5859 -119.6309 90° East 475 547 29,000 444 Level FlightAware ADS-B
Tue 02:40:30 PM 38.5851 -119.4992 90° East 475 547 29,600 875 Climbing FlightAware ADS-B
Tue 02:41:18 PM 38.5840 -119.3618 91° East 476 548 30,400 987 Climbing FlightAware ADS-B
Tue 02:41:49 PM 38.5833 -119.2753 91° East 477 549 30,900 590 Climbing FlightAware ADS-B
Tue 02:42:19 PM 38.5825 -119.1904 91° East 479 551 31,000 98 Climbing FlightAware ADS-B
Tue 02:42:50 PM 38.5816 -119.1057 91° East 481 554 31,000 492 Level FlightAware ADS-B
Tue 02:43:20 PM 38.5807 -119.0209 91° East 477 549 31,500 952 Climbing FlightAware ADS-B
Tue 02:43:53 PM 38.5796 -118.9278 91° East 478 550 32,000 911 Climbing FlightAware ADS-B
Tue 02:44:39 PM 38.5603 -118.8147 91° East 489 563 32,700 556 Climbing Oakland Center
Tue 02:45:41 PM 38.5144 -118.6472 109° East 501 577 33,000 146 Climbing Oakland Center
Tue 02:46:42 PM 38.4700 -118.4792 109° East 502 578 33,000  Level Oakland Center
Tue 02:47:44 PM 38.4553 -118.3103 96° East 486 559 33,000 48 Level Oakland Center
Tue 02:48:46 PM 38.4558 -118.1111 90° East 471 542 33,100 683 Climbing Oakland Center
Tue 02:49:47 PM 38.4558 -117.9656 90° East 466 536 34,400 1,366 Climbing Oakland Center
Tue 02:50:49 PM 38.4561 -117.8069 90° East 451 519 35,900 1,463 Climbing Oakland Center
Tue 02:51:50 PM 38.4561 -117.6506 90° East 443 510 37,400 1,458 Climbing Oakland Center
Tue 02:52:36 PM 38.4561 -117.5283 90° East 429 494 38,500 1,222 Climbing Salt Lake Center
Tue 02:53:38 PM 38.4544 -117.3792 91° East 419 482 39,600 927 Climbing Salt Lake Center
Tue 02:54:39 PM 38.4542 -117.2303 90° East 416 479 40,400 732 Climbing Salt Lake Center
Tue 02:55:41 PM 38.4528 -117.0786 91° East 422 486 41,100 871 Climbing Salt Lake Center
Tue 02:56:43 PM 38.4517 -116.9278 90° East 422 486 42,200 1,024 Climbing Salt Lake Center
Tue 02:57:44 PM 38.4514 -116.7508 90° East 414 476 43,200 829 Climbing Salt Lake Center
Tue 02:58:46 PM 38.4494 -116.6081 91° East 404 465 43,900 677 Climbing Salt Lake Center
Tue 02:59:48 PM 38.4486 -116.4647 90° East 403 464 44,600 537 Climbing Salt Lake Center
Tue 03:00:49 PM 38.4467 -116.3236 91° East 399 459 45,000 195 Climbing Salt Lake Center
Tue 03:01:51 PM 38.4450 -116.1800 91° East 403 464 45,000  Level Salt Lake Center
Tue 03:02:52 PM 38.4431 -116.0333 91° East 409 471 45,000  Level Salt Lake Center
Tue 03:03:54 PM 38.4408 -115.8811 91° East 424 488 45,000  Level Salt Lake Center
Tue 03:04:56 PM 38.4375 -115.7311 92° East 424 488 45,000  Level Salt Lake Center
Tue 03:05:57 PM 38.4361 -115.5778 91° East 431 496 45,000  Level Salt Lake Center
Tue 03:11:45 PM 38.4153 -114.6585 91° East 445 512 45,000  Level FlightAware ADS-B
Tue 03:12:44 PM 38.4107 -114.4908 92° East 445 512 45,000  Level FlightAware ADS-B
Tue 03:13:31 PM 38.4074 -114.3712 92° East 445 512 45,000  Level FlightAware ADS-B
Tue 03:14:09 PM 38.4044 -114.2705 92° East 447 514 45,000  Level FlightAware ADS-B
Tue 03:14:58 PM 38.4006 -114.1414 92° East 447 514 45,000  Level FlightAware ADS-B
Tue 03:15:38 PM 38.3974 -114.0383 92° East 445 512 45,000  Level FlightAware ADS-B
Tue 03:16:40 PM 38.3920 -113.8762 92° East 446 513 45,000  Level FlightAware ADS-B
Tue 03:17:11 PM 38.3893 -113.7938 92° East 446 513 45,000  Level FlightAware ADS-B
Tue 03:18:00 PM 38.3847 -113.6625 92° East 446 513 45,000  Level FlightAware ADS-B
Tue 03:18:42 PM 38.3810 -113.5557 93° East 447 514 45,000  Level FlightAware ADS-B
Tue 03:19:56 PM 38.3740 -113.3640 93° East 446 513 45,000  Level FlightAware ADS-B
Tue 03:20:26 PM 38.3709 -113.2804 93° East 445 512 45,000  Level FlightAware ADS-B
Tue 03:20:59 PM 38.3677 -113.1975 93° East 444 511 45,000  Level FlightAware ADS-B
Tue 03:21:35 PM 38.3639 -113.1014 93° East 445 512 45,000  Level FlightAware ADS-B
Tue 03:22:09 PM 38.3607 -113.0120 93° East 443 510 45,000  Level FlightAware ADS-B
Tue 03:22:14 PM 38.3608 -112.9996 89° East 443 510 45,000  Level FlightAware ADS-B
Tue 03:22:18 PM 38.3610 -112.9880 89° East 442 509 45,000  Level FlightAware ADS-B
Tue 03:22:48 PM 38.3640 -112.9110 87° East 441 507 45,000  Level FlightAware ADS-B
Tue 03:22:49 PM 38.3641 -112.9090 86° East 441 507 45,000  Level FlightAware ADS-B
Tue 03:23:19 PM 38.3666 -112.8310 88° East 440 506 45,000  Level FlightAware ADS-B
Tue 03:23:33 PM 38.3677 -112.7952 88° East 440 506 45,000  Level FlightAware ADS-B
Tue 03:23:49 PM 38.3691 -112.7520 88° East 440 506 45,000  Level FlightAware ADS-B
Tue 03:24:03 PM 38.3699 -112.7264 88° East 440 506 45,000  Level FlightAware ADS-B
Tue 03:24:25 PM 38.3719 -112.6600 88° East 440 506 45,000  Level FlightAware ADS-B
Tue 03:24:47 PM 38.3737 -112.6024 88° East 440 506 45,000  Level FlightAware ADS-B
Tue 03:24:58 PM 38.3746 -112.5740 88° East 440 506 45,000  Level FlightAware ADS-B
Tue 03:25:19 PM 38.3763 -112.5194 88° East 439 505 45,000  Level FlightAware ADS-B
Tue 03:25:29 PM 38.3770 -112.4940 88° East 439 505 45,000  Level FlightAware ADS-B
Tue 03:25:59 PM 38.3793 -112.4171 88° East 439 505 45,000  Level FlightAware ADS-B
Tue 03:26:11 PM 38.3802 -112.3860 88° East 439 505 45,000  Level FlightAware ADS-B
Tue 03:26:13 PM 38.3783 -112.4502 268° West 401 461 45,000  Level FlightAware ADS-B (KGUC)
Tue 03:26:28 PM 38.3814 -112.3421 88° East 438 504 45,000  Level FlightAware ADS-B
Tue 03:26:41 PM 38.3824 -112.3090 88° East 438 504 45,000  Level FlightAware ADS-B
Tue 03:27:12 PM 38.3846 -112.2300 88° East 438 504 45,000  Level FlightAware ADS-B
Tue 03:27:22 PM 38.3853 -112.2038 88° East 437 503 45,000  Level FlightAware ADS-B
Tue 03:27:42 PM 38.3867 -112.1510 88° East 437 503 45,000  Level FlightAware ADS-B
Tue 03:27:59 PM 38.3879 -112.1069 88° East 437 503 45,000  Level FlightAware ADS-B
Tue 03:28:14 PM 38.3889 -112.0700 88° East 437 503 45,000  Level FlightAware ADS-B
Tue 03:28:31 PM 38.3901 -112.0264 88° East 437 503 45,000  Level FlightAware ADS-B
Tue 03:28:52 PM 38.3914 -111.9720 88° East 437 503 45,000  Level FlightAware ADS-B
Tue 03:29:03 PM 38.3922 -111.9421 88° East 436 502 45,000  Level FlightAware ADS-B
Tue 03:29:24 PM 38.3935 -111.8880 88° East 437 503 45,000  Level FlightAware ADS-B
Tue 03:29:40 PM 38.3945 -111.8490 88° East 436 502 45,000  Level FlightAware ADS-B
Tue 03:29:57 PM 38.3955 -111.8060 88° East 436 502 45,000  Level FlightAware ADS-B
Tue 03:30:17 PM 38.3969 -111.7530 88° East 436 502 45,000  Level FlightAware ADS-B
Tue 03:30:48 PM 38.3986 -111.6750 88° East 436 502 45,000  Level FlightAware ADS-B
Tue 03:31:02 PM 38.3992 -111.6493 88° East 436 502 45,000  Level FlightAware ADS-B
Tue 03:31:18 PM 38.4003 -111.5970 88° East 437 503 45,000  Level FlightAware ADS-B
Tue 03:31:34 PM 38.4013 -111.5550 88° East 438 504 45,000  Level FlightAware ADS-B
Tue 03:31:53 PM 38.4024 -111.5060 88° East 436 502 45,000  Level FlightAware ADS-B
Tue 03:32:06 PM 38.4031 -111.4733 88° East 436 502 45,000  Level FlightAware ADS-B
Tue 03:32:24 PM 38.4040 -111.4270 89° East 437 503 45,000  Level FlightAware ADS-B
Tue 03:32:37 PM 38.4047 -111.3964 88° East 438 504 45,000  Level FlightAware ADS-B
Tue 03:32:55 PM 38.4056 -111.3470 89° East 439 505 45,000  Level FlightAware ADS-B
Tue 03:33:08 PM 38.4063 -111.3163 88° East 439 505 45,000  Level FlightAware ADS-B
Tue 03:33:26 PM 38.4072 -111.2680 89° East 440 506 45,000  Level FlightAware ADS-B
Tue 03:33:42 PM 38.4077 -111.2411 89° East 440 506 45,000  Level FlightAware ADS-B
Tue 03:33:59 PM 38.4089 -111.1820 89° East 440 506 45,000  Level FlightAware ADS-B
Tue 03:34:21 PM 38.4099 -111.1260 89° East 442 509 45,000  Level FlightAware ADS-B
Tue 03:34:30 PM 38.4103 -111.1010 89° East 442 509 45,000  Level FlightAware ADS-B
Tue 03:34:52 PM 38.4113 -111.0464 89° East 443 510 45,000  Level FlightAware ADS-B
Tue 03:35:00 PM 38.4117 -111.0220 89° East 443 510 45,000  Level FlightAware ADS-B
Tue 03:35:23 PM 38.4127 -110.9647 89° East 442 509 45,000  Level FlightAware ADS-B
Tue 03:35:53 PM 38.4140 -110.8851 89° East 441 507 45,000  Level FlightAware ADS-B
Tue 03:36:00 PM 38.4142 -110.8680 89° East 441 507 45,000  Level FlightAware ADS-B
Tue 03:36:26 PM 38.4152 -110.8053 89° East 442 509 45,000  Level FlightAware ADS-B
Tue 03:36:56 PM 38.4165 -110.7227 89° East 442 509 45,000  Level FlightAware ADS-B (KGUC)
Tue 03:37:29 PM 38.4178 -110.6444 89° East 442 509 45,000  Level FlightAware ADS-B
Tue 03:38:02 PM 38.4202 -110.5515 88° East 442 509 45,000  Level FlightAware ADS-B (KGUC)
Tue 03:38:32 PM 38.4223 -110.4717 88° East 442 509 45,000  Level FlightAware ADS-B (KGUC)
Tue 03:39:02 PM 38.4241 -110.3938 88° East 442 509 45,000  Level FlightAware ADS-B
Tue 03:39:36 PM 38.4261 -110.3051 88° East 442 509 45,000  Level FlightAware ADS-B
Tue 03:39:56 PM 38.4265 -110.2902 88° East 441 507 45,000  Level FlightAware ADS-B (KGUC)
Tue 03:40:30 PM 38.4290 -110.1677 88° East 440 506 45,000  Level FlightAware ADS-B
Tue 03:41:00 PM 38.4306 -110.0900 89° East 440 506 45,000  Level FlightAware ADS-B
Tue 03:41:36 PM 38.4325 -109.9946 89° East 439 505 45,000  Level FlightAware ADS-B
Tue 03:42:06 PM 38.4339 -109.9172 89° East 436 502 45,000  Level FlightAware ADS-B
Tue 03:42:41 PM 38.4356 -109.8275 89° East 439 505 45,000  Level FlightAware ADS-B
Tue 03:43:13 PM 38.4370 -109.7452 89° East 441 507 45,000  Level FlightAware ADS-B
Tue 03:43:46 PM 38.4385 -109.6596 89° East 439 505 45,000  Level FlightAware ADS-B (KGUC)
Tue 03:44:17 PM 38.4397 -109.5787 89° East 441 507 45,000  Level FlightAware ADS-B
Tue 03:44:48 PM 38.4410 -109.4987 89° East 442 509 45,000  Level FlightAware ADS-B
Tue 03:45:19 PM 38.4421 -109.4182 89° East 442 509 45,000  Level FlightAware ADS-B
Tue 03:45:49 PM 38.4432 -109.3393 89° East 445 512 45,000  Level FlightAware ADS-B
Tue 03:46:22 PM 38.4443 -109.2527 89° East 446 513 45,000  Level FlightAware ADS-B
Tue 03:46:53 PM 38.4454 -109.1708 89° East 446 513 45,000  Level FlightAware ADS-B
Tue 03:47:26 PM 38.4464 -109.0844 89° East 446 513 45,000  Level FlightAware ADS-B
Tue 03:47:56 PM 38.4473 -109.0049 89° East 448 516 45,000  Level FlightAware ADS-B
Tue 03:48:29 PM 38.4482 -108.9178 89° East 448 516 45,000  Level FlightAware ADS-B
Tue 03:49:05 PM 38.4491 -108.8231 89° East 450 518 45,000  Level FlightAware ADS-B
Tue 03:49:35 PM 38.4498 -108.7439 89° East 450 518 45,000  Level FlightAware ADS-B
Tue 03:50:08 PM 38.4505 -108.6562 89° East 451 519 45,000  Level FlightAware ADS-B
Tue 03:50:38 PM 38.4511 -108.5824 89° East 452 520 45,000  Level FlightAware ADS-B
Tue 03:51:08 PM 38.4516 -108.5001 90° East 452 520 45,000  Level FlightAware ADS-B
Tue 03:51:43 PM 38.4522 -108.4131 90° East 453 521 45,000  Level FlightAware ADS-B (KGUC)
Tue 03:52:13 PM 38.4527 -108.3288 90° East 454 522 45,000  Level FlightAware ADS-B (KGUC)
Tue 03:52:50 PM 38.4541 -108.2244 89° East 455 524 45,000  Level FlightAware ADS-B
Tue 03:53:17 PM 38.4666 -108.1532 77° East 456 525 45,000  Level FlightAware ADS-B
Tue 03:53:54 PM 38.4864 -108.0639 74° East 457 526 45,000  Level FlightAware ADS-B
Tue 03:54:28 PM 38.5059 -107.9721 75° East 456 525 45,000  Level FlightAware ADS-B
Tue 03:55:00 PM 38.5243 -107.8859 75° East 457 526 45,000  Level FlightAware ADS-B
Tue 03:55:45 PM 38.5489 -107.7705 75° East 458 527 45,000  Level FlightAware ADS-B
Tue 03:56:22 PM 38.5696 -107.6734 75° East 460 529 45,000  Level FlightAware ADS-B
Tue 03:56:52 PM 38.5860 -107.5959 75° East 460 529 45,000  Level FlightAware ADS-B
Tue 03:57:30 PM 38.6054 -107.5042 75° East 461 531 45,000  Level FlightAware ADS-B
Tue 03:58:06 PM 38.6269 -107.4020 75° East 461 531 45,000  Level FlightAware ADS-B (KGUC)
Tue 03:58:43 PM 38.6269 -107.4020 75° East 462 532 45,000  Level FlightAware ADS-B (KGUC)
Tue 03:59:20 PM 38.6681 -107.2054 75° East 463 533 45,000  Level FlightAware ADS-B
Tue 04:00:02 PM 38.6905 -107.0975 75° East 463 533 45,000  Level FlightAware ADS-B
Tue 04:00:33 PM 38.7080 -107.0125 75° East 464 534 45,000  Level FlightAware ADS-B
Tue 04:01:12 PM 38.7292 -106.9093 75° East 465 535 45,000  Level FlightAware ADS-B
Tue 04:01:22 PM 38.7286 -106.9120 255° West 465 535 45,000  Level FlightAware ADS-B (KGUC)
Tue 04:01:56 PM 38.7531 -106.7927 75° East 466 536 45,000  Level FlightAware ADS-B
Tue 04:02:27 PM 38.7701 -106.7090 75° East 468 539 45,000  Level FlightAware ADS-B
Tue 04:03:04 PM 38.7897 -106.6117 75° East 470 541 45,000  Level FlightAware ADS-B
Tue 04:03:41 PM 38.8103 -106.5097 75° East 473 544 45,000  Level FlightAware ADS-B
Tue 04:04:12 PM 38.8273 -106.4254 75° East 472 543 45,000  Level FlightAware ADS-B
Tue 04:04:42 PM 38.8435 -106.3445 76° East 473 544 45,000  Level FlightAware ADS-B
Tue 04:05:14 PM 38.8602 -106.2604 76° East 473 544 45,000  Level FlightAware ADS-B
Tue 04:05:46 PM 38.8781 -106.1703 76° East 473 544 45,000  Level FlightAware ADS-B
Tue 04:06:17 PM 38.8942 -106.0888 76° East 470 541 45,000  Level FlightAware ADS-B
Tue 04:06:48 PM 38.9112 -106.0027 76° East 471 542 45,000  Level FlightAware ADS-B
Tue 04:07:24 PM 38.9297 -105.9080 76° East 474 545 45,000  Level FlightAware ADS-B
Tue 04:07:54 PM 38.9463 -105.8232 76° East 473 544 45,000  Level FlightAware ADS-B
Tue 04:08:25 PM 38.9621 -105.7413 76° East 477 549 45,000  Level FlightAware ADS-B
Tue 04:08:55 PM 38.9786 -105.6562 76° East 475 547 45,000  Level FlightAware ADS-B
Tue 04:09:25 PM 38.9942 -105.5751 76° East 478 550 45,000  Level FlightAware ADS-B
Tue 04:09:55 PM 39.0100 -105.4927 76° East 475 547 45,000  Level FlightAware ADS-B
Tue 04:10:34 PM 39.0301 -105.3873 76° East 479 551 45,000  Level FlightAware ADS-B
Tue 04:11:04 PM 39.0458 -105.3047 76° East 480 552 45,000  Level FlightAware ADS-B
Tue 04:11:55 PM 39.0720 -105.1662 76° East 482 555 45,000  Level FlightAware ADS-B
Tue 04:12:25 PM 39.0890 -105.0757 76° East 484 557 45,000  Level FlightAware ADS-B
Tue 04:13:07 PM 39.1108 -104.9587 76° East 485 558 45,000  Level FlightAware ADS-B
Tue 04:13:41 PM 39.1285 -104.8637 76° East 481 554 45,000  Level FlightAware ADS-B
Tue 04:14:51 PM 39.1642 -104.6706 77° East 481 554 45,000  Level FlightAware ADS-B
Tue 04:15:22 PM 39.1799 -104.5847 77° East 485 558 45,000  Level FlightAware ADS-B
Tue 04:15:52 PM 39.1913 -104.5222 77° East 483 556 45,000  Level FlightAware ADS-B
Tue 04:17:14 PM 39.2359 -104.2753 77° East 484 557 45,000  Level FlightAware ADS-B
Tue 04:21:09 PM 39.3531 -103.6118 77° East 484 557 45,000  Level FlightAware ADS-B
Tue 04:21:56 PM 39.3744 -103.4917 77° East 483 556 45,000  Level Denver Center
Tue 04:22:58 PM 39.4031 -103.3233 78° East 483 556 45,000  Level Denver Center
Tue 04:23:59 PM 39.4311 -103.1539 78° East 483 556 45,000  Level Denver Center
Tue 04:25:01 PM 39.4589 -102.9839 78° East 485 558 45,000  Level Denver Center
Tue 04:26:02 PM 39.4878 -102.8142 78° East 486 559 45,000  Level Denver Center
Tue 04:27:04 PM 39.5167 -102.6442 78° East 485 558 45,000  Level Denver Center
Tue 04:28:06 PM 39.5492 -102.4397 78° East 484 557 45,000  Level Denver Center
Tue 04:29:08 PM 39.5797 -102.2636 77° East 484 557 45,000  Level Denver Center
Tue 04:30:09 PM 39.6056 -102.1003 78° East 484 557 45,000  Level Denver Center
Tue 04:31:11 PM 39.6347 -101.9078 79° East 487 560 45,000  Level Denver Center
Tue 04:32:13 PM 39.6603 -101.7439 78° East 485 558 45,000  Level Denver Center
Tue 04:33:14 PM 39.6856 -101.5786 79° East 488 562 45,000  Level Denver Center
Tue 04:34:16 PM 39.7156 -101.3872 78° East 486 559 45,000  Level Denver Center
Tue 04:35:18 PM 39.7411 -101.2211 79° East 490 564 45,000  Level Denver Center
Tue 04:36:20 PM 39.7703 -101.0278 79° East 490 564 45,000  Level Denver Center
Tue 04:37:21 PM 39.7947 -100.8603 79° East 493 567 45,000  Level Denver Center
Tue 04:38:23 PM 39.8228 -100.6656 79° East 493 567 45,000  Level Denver Center
Tue 04:39:25 PM 39.8475 -100.4983 79° East 494 568 45,000  Level Denver Center
Tue 04:40:27 PM 39.8767 -100.3003 79° East 499 574 45,000  Level Denver Center
Tue 04:41:28 PM 39.8986 -100.1417 80° East 497 572 45,000  Level Denver Center
Tue 04:42:30 PM 39.9239 -99.9636 79° East 499 574 45,000  Level Denver Center
Tue 04:43:32 PM 39.9489 -99.7847 80° East 503 579 45,000  Level Denver Center
Tue 04:44:34 PM 39.9786 -99.5700 80° East 502 578 45,000  Level Denver Center
Tue 04:45:35 PM 40.0019 -99.3900 80° East 505 581 45,000  Level Denver Center
Tue 04:46:37 PM 40.0261 -99.2103 80° East 504 580 45,000  Level Denver Center
Tue 04:52:09 PM 40.1575 -98.1836 80° East 512 589 45,000  Level FlightAware ADS-B
Tue 04:53:15 PM 40.1820 -97.9831 81° East 511 588 45,000  Level FlightAware ADS-B
Tue 04:54:18 PM 40.2003 -97.8294 81° East 510 587 45,000  Level Minneapolis Center
Tue 04:55:20 PM 40.2264 -97.6086 81° East 513 590 45,000  Level Minneapolis Center
Tue 04:56:22 PM 40.2475 -97.4233 81° East 514 592 45,000  Level Minneapolis Center
Tue 04:57:24 PM 40.2675 -97.2558 81° East 516 594 45,000  Level Minneapolis Center
Tue 05:03:16 PM 40.3914 -96.1296 81° East 518 596 45,000  Level FlightAware ADS-B
Tue 05:04:46 PM 40.4197 -95.8566 82° East 519 597 45,000  Level FlightAware ADS-B
Tue 05:06:33 PM 40.4536 -95.5189 82° East 517 595 45,000  Level FlightAware ADS-B
Tue 05:10:55 PM 40.5317 -94.7021 83° East 518 596 45,000  Level FlightAware ADS-B
Tue 05:12:10 PM 40.5526 -94.4719 83° East 516 594 45,000  Level FlightAware ADS-B
Tue 05:15:12 PM 40.6029 -93.9125 83° East 523 602 45,000  Level FlightAware ADS-B
Tue 05:16:43 PM 40.6478 -93.6208 78° East 523 602 45,000  Level FlightAware ADS-B
Tue 05:18:16 PM 40.6899 -93.3285 79° East 526 605 45,000 -663 Level FlightAware ADS-B
Tue 05:19:44 PM 40.7290 -93.0524 79° East 535 616 43,000 -1,387 Descending FlightAware ADS-B
Tue 05:21:09 PM 40.7677 -92.7729 80° East 555 639 41,000 -1,348 Descending FlightAware ADS-B
Tue 05:21:13 PM 40.7702 -92.7552 80° East 556 640 41,000  Level FlightAware ADS-B (LPVM)
Tue 05:21:56 PM 40.7902 -92.6094 80° East 556 640 41,000  Level FlightAware ADS-B (LPVM)
Tue 05:22:33 PM 40.8067 -92.4881 80° East 558 642 41,000  Level FlightAware ADS-B (LPVM)
Tue 05:23:21 PM 40.8286 -92.3249 80° East 560 644 41,000  Level FlightAware ADS-B (LPVM)
Tue 05:24:00 PM 40.8462 -92.1930 80° East 559 643 41,000 -424 Level FlightAware ADS-B (LPVM)
Tue 05:25:00 PM 40.8708 -92.0050 80° East 566 651 40,300 -1,168 Descending FlightAware ADS-B (LPVM)
Tue 05:25:53 PM 40.8961 -91.8103 80° East 573 659 38,800 -1,516 Descending FlightAware ADS-B (LPVM)
Tue 05:26:35 PM 40.9128 -91.6801 80° East 575 662 37,900 -1,518 Descending FlightAware ADS-B (LPVM)
Tue 05:27:16 PM 40.9303 -91.5425 80° East 572 658 36,700 -2,447 Descending Chicago Center
Tue 05:28:18 PM 40.9725 -91.3458 74° East 568 654 33,700 -2,758 Descending Chicago Center
Tue 05:29:20 PM 41.0467 -91.1917 57° Northeast 557 641 31,000 -3,048 Descending Chicago Center
Tue 05:30:22 PM 41.1381 -90.9997 58° Northeast 510 587 27,400 -2,419 Descending Chicago Center
Tue 05:31:24 PM 41.2092 -90.8558 57° Northeast 470 541 26,000 -1,113 Descending Chicago Center
Tue 05:32:26 PM 41.2486 -90.7056 71° East 440 506 25,100 -1,161 Descending Chicago Center
Tue 05:33:28 PM 41.2328 -90.5511 98° East 423 487 23,600 -1,452 Descending Chicago Center
Tue 05:34:30 PM 41.2231 -90.3978 95° East 417 480 22,100 -774 Descending Chicago Center
Tue 05:35:32 PM 41.2122 -90.2561 96° East 391 450 22,000 -576 Descending Chicago Center
Tue 05:36:35 PM 41.2006 -90.1067 96° East 400 460 20,900 -1,776 Descending Chicago Center
Tue 05:37:37 PM 41.1867 -89.9283 96° East 403 464 18,300 -2,081 Descending Chicago Center
Tue 05:38:39 PM 41.1767 -89.7850 95° East 395 455 16,600 -1,597 Descending Chicago Center
Tue 05:39:41 PM 41.1656 -89.6489 96° East 379 436 15,000 -1,440 Descending Chicago Center
Tue 05:40:44 PM 41.1636 -89.5258 91° East 344 396 13,600 -1,403 Descending Chicago Center
Tue 05:41:45 PM 41.1728 -89.4014 84° East 337 388 12,100 -1,463 Descending Chicago Center
Tue 05:42:47 PM 41.1806 -89.2831 85° East 326 375 10,600 -1,016 Descending Chicago Center
Tue 05:43:49 PM 41.1900 -89.1497 85° East 316 364 10,000 -290 Descending Chicago Center
Tue 05:44:51 PM 41.1975 -89.0350 85° East 314 361 10,000 -677 Level Chicago Center
Tue 05:45:53 PM 41.2039 -88.9236 86° East 308 354 8,600 -1,403 Descending Chicago Center
Tue 05:46:55 PM 41.2111 -88.8139 85° East 302 348 7,100 -1,248 Descending Chicago Center
Tue 05:47:58 PM 41.2186 -88.6861 85° East 294 338 6,000 -528 Descending Chicago Center
Tue 05:49:00 PM 41.2697 -88.6078 49° Northeast 298 343 6,000  Level Chicago Center
Tue 05:50:02 PM 41.3364 -88.5364 39° Northeast 305 351 6,000  Level Chicago Center
Tue 05:51:04 PM 41.4039 -88.4664 38° Northeast 307 353 6,000 -48 Level Chicago Center
Tue 05:52:06 PM 41.4689 -88.3936 40° Northeast 304 350 5,900 -484 Descending Chicago Center
Tue 05:53:08 PM 41.5061 -88.2961 63° Northeast 292 336 5,000 -435 Descending Chicago Center
Tue 05:54:10 PM 41.5214 -88.2011 78° East 261 300 5,000  Level Chicago Center
Tue 05:55:12 PM 41.5369 -88.0911 79° East 251 289 5,000  Level Chicago Center
Tue 05:56:15 PM 41.5503 -87.9994 79° East 248 285 5,000  Level Chicago Center
Tue 05:57:17 PM 41.5619 -87.9075 80° East 249 287 5,000  Level Chicago Center
Tue 05:58:19 PM 41.5731 -87.8314 79° East 224 258 5,000  Level Chicago Center
Tue 05:59:21 PM 41.5847 -87.7564 78° East 211 243 5,000  Level Chicago Center
Tue 06:00:23 PM 41.5861 -87.6847 88° East 201 231 5,000 -484 Level Chicago Center
Tue 06:01:25 PM 41.5714 -87.6158 106° East 196 226 4,000 -484 Descending Chicago Center
Tue 06:02:27 PM 41.5453 -87.5431 116° Southeast 193 222 4,000 -145 Level Chicago Center
Tue 06:03:29 PM 41.5903 -87.5117 28° Northeast 207 238 3,700 -480 Descending Chicago Center
Tue 06:04:32 PM 41.6381 -87.5450 332° Northwest 203 234 3,000 -336 Descending Chicago Center
Tue 06:05:34 PM 41.6747 -87.5956 314° West 195 224 3,000 -145 Level Chicago Center
Tue 06:06:36 PM 41.7089 -87.6467 312° West 190 219 2,700 -677 Descending Chicago Center
Tue 06:07:38 PM 41.7475 -87.7006 314° West 180 207 1,600 -677 Descending Chicago Center
Tue 06:08:40 PM 41.7836 -87.7139 345° North 168 193 1,300 -145 Descending Chicago Center
Tue 06:09:42 PM 41.8169 -87.7153 358° North 161 185 1,300 -48 Level Chicago Center
Tue 06:10:44 PM 41.7958 -87.7375 218° Southwest 149 171 1,200 -97 Descending Chicago Center

Login

Don't have an account? Register now (free) for customized features, flight alerts, and more!